Terminal Aerodrome Forecast
Issued by NWS

Home | Current Version | Previous Version | Text Only | Print | Product List | Glossary On
Versions: 1 2 3 4 5 6 7 8 9 10 11 12 13 14 15 16 17 18 19 20 21 22 23
000
FTUS43 KDLH 210532
TAFHYR
TAF
KHYR 210532Z 2106/2206 08006KT 2SM -SHRA BR OVC006
     FM210900 10005KT 1SM -SHRA BR OVC003
     FM211400 19006KT 3SM -SHRA BR OVC006
     FM212000 24008KT 4SM -SHRA BR BKN007 OVC012
     FM220000 27005KT 4SM BR VCSH OVC007=

USA.gov is the U.S. government's official web portal to all federal, state and local government web resources and services.